sensor_id;sensor_type;location;lat;lon;timestamp;pressure;altitude;pressure_sealevel;temperature;humidity
81905;BME280;71370;-33.792;151.032;2023-10-31T00:00:41;100395.79;;;28.67;19.51
81905;BME280;71370;-33.792;151.032;2023-10-31T00:01:48;100395.76;;;28.67;19.20
81905;BME280;71370;-33.792;151.032;2023-10-31T00:02:55;100398.88;;;28.67;19.03
81905;BME280;71370;-33.792;151.032;2023-10-31T00:04:02;100396.98;;;28.67;19.38
81905;BME280;71370;-33.792;151.032;2023-10-31T00:05:09;100393.85;;;28.70;19.35
81905;BME280;71370;-33.792;151.032;2023-10-31T00:06:16;100390.03;;;28.72;18.92
81905;BME280;71370;-33.792;151.032;2023-10-31T00:07:23;100387.41;;;28.73;18.92
81905;BME280;71370;-33.792;151.032;2023-10-31T00:08:29;100388.44;;;28.73;19.24
81905;BME280;71370;-33.792;151.032;2023-10-31T00:09:36;100399.06;;;28.76;19.36
81905;BME280;71370;-33.792;151.032;2023-10-31T00:10:45;100401.20;;;28.78;18.92
81905;BME280;71370;-33.792;151.032;2023-10-31T00:11:52;100404.05;;;28.79;18.78
81905;BME280;71370;-33.792;151.032;2023-10-31T00:12:59;100405.70;;;28.78;19.04
81905;BME280;71370;-33.792;151.032;2023-10-31T00:14:06;100401.27;;;28.80;19.06
81905;BME280;71370;-33.792;151.032;2023-10-31T00:15:13;100401.73;;;28.80;18.59
81905;BME280;71370;-33.792;151.032;2023-10-31T00:16:20;100395.77;;;28.80;18.69
81905;BME280;71370;-33.792;151.032;2023-10-31T00:17:27;100402.80;;;28.81;18.79
81905;BME280;71370;-33.792;151.032;2023-10-31T00:18:34;100406.05;;;28.81;18.18
81905;BME280;71370;-33.792;151.032;2023-10-31T00:19:41;100403.23;;;28.82;18.28
81905;BME280;71370;-33.792;151.032;2023-10-31T00:20:48;100405.44;;;28.83;18.42
81905;BME280;71370;-33.792;151.032;2023-10-31T00:21:55;100409.75;;;28.87;18.29
81905;BME280;71370;-33.792;151.032;2023-10-31T00:23:01;100402.98;;;28.91;18.10
81905;BME280;71370;-33.792;151.032;2023-10-31T00:24:08;100407.32;;;28.96;17.95
81905;BME280;71370;-33.792;151.032;2023-10-31T00:25:15;100405.19;;;28.99;17.68
81905;BME280;71370;-33.792;151.032;2023-10-31T00:26:22;100407.90;;;29.01;17.25
81905;BME280;71370;-33.792;151.032;2023-10-31T00:27:29;100409.55;;;29.02;17.78
81905;BME280;71370;-33.792;151.032;2023-10-31T00:28:36;100403.96;;;29.06;17.79
81905;BME280;71370;-33.792;151.032;2023-10-31T00:29:43;100399.23;;;29.10;17.56
81905;BME280;71370;-33.792;151.032;2023-10-31T00:30:50;100398.73;;;29.14;16.86
81905;BME280;71370;-33.792;151.032;2023-10-31T00:31:57;100404.85;;;29.14;16.43
81905;BME280;71370;-33.792;151.032;2023-10-31T00:33:04;100402.02;;;29.13;16.25
81905;BME280;71370;-33.792;151.032;2023-10-31T00:34:11;100415.81;;;29.13;16.15
81905;BME280;71370;-33.792;151.032;2023-10-31T00:35:18;100415.81;;;29.13;15.50
81905;BME280;71370;-33.792;151.032;2023-10-31T00:36:24;100413.31;;;29.12;15.71
81905;BME280;71370;-33.792;151.032;2023-10-31T00:37:31;100411.20;;;29.11;15.55
81905;BME280;71370;-33.792;151.032;2023-10-31T00:38:38;100406.66;;;29.12;15.70
81905;BME280;71370;-33.792;151.032;2023-10-31T00:39:45;100400.81;;;29.15;16.01
81905;BME280;71370;-33.792;151.032;2023-10-31T00:40:52;100401.25;;;29.19;15.95
81905;BME280;71370;-33.792;151.032;2023-10-31T00:41:59;100393.14;;;29.25;15.51
81905;BME280;71370;-33.792;151.032;2023-10-31T00:43:06;100390.40;;;29.28;15.73
81905;BME280;71370;-33.792;151.032;2023-10-31T00:44:13;100389.09;;;29.33;14.96
81905;BME280;71370;-33.792;151.032;2023-10-31T00:45:20;100388.51;;;29.35;15.17
81905;BME280;71370;-33.792;151.032;2023-10-31T00:46:27;100392.30;;;29.39;15.37
81905;BME280;71370;-33.792;151.032;2023-10-31T00:47:34;100393.78;;;29.44;14.69
81905;BME280;71370;-33.792;151.032;2023-10-31T00:48:42;100398.48;;;29.48;14.30
81905;BME280;71370;-33.792;151.032;2023-10-31T00:49:48;100395.25;;;29.51;14.42
81905;BME280;71370;-33.792;151.032;2023-10-31T00:50:55;100393.16;;;29.54;14.42
81905;BME280;71370;-33.792;151.032;2023-10-31T00:52:02;100390.15;;;29.57;14.48
81905;BME280;71370;-33.792;151.032;2023-10-31T00:53:09;100389.21;;;29.61;14.58
81905;BME280;71370;-33.792;151.032;2023-10-31T00:54:16;100396.77;;;29.65;13.79
81905;BME280;71370;-33.792;151.032;2023-10-31T00:55:23;100399.62;;;29.67;13.69
81905;BME280;71370;-33.792;151.032;2023-10-31T00:56:31;100406.61;;;29.66;13.30
81905;BME280;71370;-33.792;151.032;2023-10-31T00:57:37;100401.67;;;29.65;12.67
81905;BME280;71370;-33.792;151.032;2023-10-31T00:58:45;100399.18;;;29.64;13.01
81905;BME280;71370;-33.792;151.032;2023-10-31T00:59:52;100410.42;;;29.66;13.02
81905;BME280;71370;-33.792;151.032;2023-10-31T01:00:59;100404.77;;;29.68;12.54
81905;BME280;71370;-33.792;151.032;2023-10-31T01:02:06;100406.77;;;29.70;12.71
81905;BME280;71370;-33.792;151.032;2023-10-31T01:03:13;100401.23;;;29.73;12.49
81905;BME280;71370;-33.792;151.032;2023-10-31T01:04:20;100407.68;;;29.78;11.81
81905;BME280;71370;-33.792;151.032;2023-10-31T01:05:27;100413.89;;;29.81;11.29
81905;BME280;71370;-33.792;151.032;2023-10-31T01:06:39;100410.40;;;29.81;10.72
81905;BME280;71370;-33.792;151.032;2023-10-31T01:07:46;100409.89;;;29.81;10.48
81905;BME280;71370;-33.792;151.032;2023-10-31T01:08:53;100411.59;;;29.80;10.47
81905;BME280;71370;-33.792;151.032;2023-10-31T01:10:00;100409.23;;;29.78;10.31
81905;BME280;71370;-33.792;151.032;2023-10-31T01:11:06;100408.41;;;29.79;10.44
81905;BME280;71370;-33.792;151.032;2023-10-31T01:12:13;100407.73;;;29.81;10.52
81905;BME280;71370;-33.792;151.032;2023-10-31T01:13:20;100407.63;;;29.82;10.00
81905;BME280;71370;-33.792;151.032;2023-10-31T01:14:27;100407.18;;;29.83;9.98
81905;BME280;71370;-33.792;151.032;2023-10-31T01:15:34;100413.48;;;29.85;10.38
81905;BME280;71370;-33.792;151.032;2023-10-31T01:16:41;100420.35;;;29.89;11.10
81905;BME280;71370;-33.792;151.032;2023-10-31T01:17:48;100419.81;;;29.92;11.42
81905;BME280;71370;-33.792;151.032;2023-10-31T01:18:55;100416.18;;;29.94;11.60
81905;BME280;71370;-33.792;151.032;2023-10-31T01:20:02;100417.48;;;29.97;11.44
81905;BME280;71370;-33.792;151.032;2023-10-31T01:21:09;100414.67;;;30.00;11.35
81905;BME280;71370;-33.792;151.032;2023-10-31T01:22:16;100414.39;;;30.05;10.95
81905;BME280;71370;-33.792;151.032;2023-10-31T01:23:23;100421.02;;;30.09;10.57
81905;BME280;71370;-33.792;151.032;2023-10-31T01:24:29;100412.65;;;30.13;10.17
81905;BME280;71370;-33.792;151.032;2023-10-31T01:25:36;100412.88;;;30.14;10.09
81905;BME280;71370;-33.792;151.032;2023-10-31T01:26:43;100412.43;;;30.15;9.71
81905;BME280;71370;-33.792;151.032;2023-10-31T01:27:50;100409.25;;;30.16;9.83
81905;BME280;71370;-33.792;151.032;2023-10-31T01:28:57;100408.96;;;30.17;10.19
81905;BME280;71370;-33.792;151.032;2023-10-31T01:30:04;100407.75;;;30.20;10.22
81905;BME280;71370;-33.792;151.032;2023-10-31T01:31:11;100399.32;;;30.24;10.44
81905;BME280;71370;-33.792;151.032;2023-10-31T01:32:18;100402.83;;;30.31;10.66
81905;BME280;71370;-33.792;151.032;2023-10-31T01:33:25;100400.33;;;30.40;10.59
81905;BME280;71370;-33.792;151.032;2023-10-31T01:34:32;100405.58;;;30.49;10.03
81905;BME280;71370;-33.792;151.032;2023-10-31T01:35:39;100406.09;;;30.58;9.30
81905;BME280;71370;-33.792;151.032;2023-10-31T01:36:46;100412.60;;;30.63;8.54
81905;BME280;71370;-33.792;151.032;2023-10-31T01:37:53;100411.64;;;30.68;8.31
81905;BME280;71370;-33.792;151.032;2023-10-31T01:38:59;100408.86;;;30.70;8.19
81905;BME280;71370;-33.792;151.032;2023-10-31T01:40:07;100403.89;;;30.71;8.48
81905;BME280;71370;-33.792;151.032;2023-10-31T01:41:14;100411.20;;;30.74;9.04
81905;BME280;71370;-33.792;151.032;2023-10-31T01:42:21;100414.29;;;30.79;8.87
81905;BME280;71370;-33.792;151.032;2023-10-31T01:43:36;100416.80;;;30.82;8.40
81905;BME280;71370;-33.792;151.032;2023-10-31T01:44:43;100422.35;;;30.83;7.64
81905;BME280;71370;-33.792;151.032;2023-10-31T01:45:50;100423.30;;;30.81;7.59
81905;BME280;71370;-33.792;151.032;2023-10-31T01:46:57;100418.63;;;30.75;7.02
81905;BME280;71370;-33.792;151.032;2023-10-31T01:48:04;100425.20;;;30.70;7.36
81905;BME280;71370;-33.792;151.032;2023-10-31T01:49:11;100437.41;;;30.66;7.45
81905;BME280;71370;-33.792;151.032;2023-10-31T01:50:18;100445.11;;;30.65;7.59
81905;BME280;71370;-33.792;151.032;2023-10-31T01:51:27;100448.63;;;30.64;7.56
81905;BME280;71370;-33.792;151.032;2023-10-31T01:52:34;100445.64;;;30.63;7.19
81905;BME280;71370;-33.792;151.032;2023-10-31T01:53:42;100441.96;;;30.60;7.51
81905;BME280;71370;-33.792;151.032;2023-10-31T01:54:49;100444.17;;;30.60;7.51
81905;BME280;71370;-33.792;151.032;2023-10-31T01:55:57;100440.69;;;30.62;8.40
81905;BME280;71370;-33.792;151.032;2023-10-31T01:57:05;100449.27;;;30.63;8.40
81905;BME280;71370;-33.792;151.032;2023-10-31T01:58:12;100449.47;;;30.63;7.28
81905;BME280;71370;-33.792;151.032;2023-10-31T01:59:20;100454.19;;;30.61;7.16
81905;BME280;71370;-33.792;151.032;2023-10-31T02:00:27;100449.20;;;30.62;7.33
81905;BME280;71370;-33.792;151.032;2023-10-31T02:01:38;100459.05;;;30.65;7.24
81905;BME280;71370;-33.792;151.032;2023-10-31T02:02:48;100451.50;;;30.70;7.11
81905;BME280;71370;-33.792;151.032;2023-10-31T02:03:58;100456.17;;;30.71;6.77
81905;BME280;71370;-33.792;151.032;2023-10-31T02:05:07;100458.20;;;30.69;6.59
81905;BME280;71370;-33.792;151.032;2023-10-31T02:06:14;100457.20;;;30.64;6.91
81905;BME280;71370;-33.792;151.032;2023-10-31T02:07:21;100455.34;;;30.61;7.06
81905;BME280;71370;-33.792;151.032;2023-10-31T02:08:28;100455.07;;;30.60;7.56
81905;BME280;71370;-33.792;151.032;2023-10-31T02:09:35;100455.44;;;30.61;7.80
81905;BME280;71370;-33.792;151.032;2023-10-31T02:10:42;100455.23;;;30.63;7.96
81905;BME280;71370;-33.792;151.032;2023-10-31T02:11:49;100462.73;;;30.67;8.09
81905;BME280;71370;-33.792;151.032;2023-10-31T02:12:55;100461.42;;;30.72;8.07
81905;BME280;71370;-33.792;151.032;2023-10-31T02:14:02;100457.99;;;30.77;7.64
81905;BME280;71370;-33.792;151.032;2023-10-31T02:15:09;100463.70;;;30.80;7.56
81905;BME280;71370;-33.792;151.032;2023-10-31T02:16:17;100467.99;;;30.82;7.30
81905;BME280;71370;-33.792;151.032;2023-10-31T02:17:24;100464.88;;;30.83;7.67
81905;BME280;71370;-33.792;151.032;2023-10-31T02:18:31;100465.04;;;30.83;7.87
81905;BME280;71370;-33.792;151.032;2023-10-31T02:19:38;100471.67;;;30.82;7.73
81905;BME280;71370;-33.792;151.032;2023-10-31T02:20:45;100472.17;;;30.81;7.77
81905;BME280;71370;-33.792;151.032;2023-10-31T02:21:52;100469.89;;;30.80;7.58
81905;BME280;71370;-33.792;151.032;2023-10-31T02:22:59;100463.48;;;30.79;7.31
81905;BME280;71370;-33.792;151.032;2023-10-31T02:24:06;100455.37;;;30.78;7.20
81905;BME280;71370;-33.792;151.032;2023-10-31T02:25:17;100466.83;;;30.80;7.20
81905;BME280;71370;-33.792;151.032;2023-10-31T02:26:27;100472.14;;;30.81;7.03
81905;BME280;71370;-33.792;151.032;2023-10-31T02:27:34;100468.38;;;30.84;6.86
81905;BME280;71370;-33.792;151.032;2023-10-31T02:28:41;100466.09;;;30.87;6.58
81905;BME280;71370;-33.792;151.032;2023-10-31T02:29:48;100465.45;;;30.90;6.66
81905;BME280;71370;-33.792;151.032;2023-10-31T02:30:55;100451.81;;;30.92;6.79
81905;BME280;71370;-33.792;151.032;2023-10-31T02:32:02;100464.27;;;30.94;7.02
81905;BME280;71370;-33.792;151.032;2023-10-31T02:33:09;100470.41;;;30.96;7.03
81905;BME280;71370;-33.792;151.032;2023-10-31T02:34:16;100466.27;;;30.96;7.02
81905;BME280;71370;-33.792;151.032;2023-10-31T02:35:23;100464.29;;;30.96;7.28
81905;BME280;71370;-33.792;151.032;2023-10-31T02:36:30;100465.78;;;30.95;7.22
81905;BME280;71370;-33.792;151.032;2023-10-31T02:37:37;100471.33;;;30.96;7.73
81905;BME280;71370;-33.792;151.032;2023-10-31T02:38:44;100471.65;;;31.00;7.73
81905;BME280;71370;-33.792;151.032;2023-10-31T02:39:51;100474.52;;;31.06;7.44
81905;BME280;71370;-33.792;151.032;2023-10-31T02:40:58;100468.52;;;31.09;7.03
81905;BME280;71370;-33.792;151.032;2023-10-31T02:42:05;100473.54;;;31.12;7.45
81905;BME280;71370;-33.792;151.032;2023-10-31T02:43:12;100473.66;;;31.16;7.44
81905;BME280;71370;-33.792;151.032;2023-10-31T02:44:19;100470.83;;;31.16;7.62
81905;BME280;71370;-33.792;151.032;2023-10-31T02:45:26;100478.31;;;31.18;7.85
81905;BME280;71370;-33.792;151.032;2023-10-31T02:46:32;100477.73;;;31.24;8.23
81905;BME280;71370;-33.792;151.032;2023-10-31T02:47:39;100479.74;;;31.32;7.70
81905;BME280;71370;-33.792;151.032;2023-10-31T02:48:46;100486.27;;;31.37;7.20
81905;BME280;71370;-33.792;151.032;2023-10-31T02:49:53;100483.73;;;31.39;7.04
81905;BME280;71370;-33.792;151.032;2023-10-31T02:51:00;100482.88;;;31.37;7.01
81905;BME280;71370;-33.792;151.032;2023-10-31T02:52:07;100492.67;;;31.34;7.36
81905;BME280;71370;-33.792;151.032;2023-10-31T02:53:14;100482.67;;;31.32;7.04
81905;BME280;71370;-33.792;151.032;2023-10-31T02:54:21;100486.77;;;31.29;7.12
81905;BME280;71370;-33.792;151.032;2023-10-31T02:55:27;100482.48;;;31.29;7.20
81905;BME280;71370;-33.792;151.032;2023-10-31T02:56:34;100486.05;;;31.29;7.45
81905;BME280;71370;-33.792;151.032;2023-10-31T02:57:41;100488.25;;;31.31;7.24
81905;BME280;71370;-33.792;151.032;2023-10-31T02:58:48;100488.16;;;31.33;7.57
81905;BME280;71370;-33.792;151.032;2023-10-31T02:59:55;100485.20;;;31.37;7.57
81905;BME280;71370;-33.792;151.032;2023-10-31T03:01:02;100482.99;;;31.41;7.45
81905;BME280;71370;-33.792;151.032;2023-10-31T03:02:09;100482.60;;;31.43;7.29
81905;BME280;71370;-33.792;151.032;2023-10-31T03:03:17;100489.18;;;31.44;7.51
81905;BME280;71370;-33.792;151.032;2023-10-31T03:04:24;100495.33;;;31.47;7.46
81905;BME280;71370;-33.792;151.032;2023-10-31T03:05:31;100502.86;;;31.49;7.19
81905;BME280;71370;-33.792;151.032;2023-10-31T03:06:38;100493.84;;;31.49;7.06
81905;BME280;71370;-33.792;151.032;2023-10-31T03:07:44;100493.73;;;31.46;7.04
81905;BME280;71370;-33.792;151.032;2023-10-31T03:08:51;100496.36;;;31.43;7.49
81905;BME280;71370;-33.792;151.032;2023-10-31T03:09:59;100491.31;;;31.43;7.70
81905;BME280;71370;-33.792;151.032;2023-10-31T03:11:06;100497.08;;;31.42;7.69
81905;BME280;71370;-33.792;151.032;2023-10-31T03:12:12;100491.96;;;31.42;8.13
81905;BME280;71370;-33.792;151.032;2023-10-31T03:13:19;100498.98;;;31.42;7.73
81905;BME280;71370;-33.792;151.032;2023-10-31T03:14:26;100489.45;;;31.45;7.76
81905;BME280;71370;-33.792;151.032;2023-10-31T03:15:34;100491.76;;;31.46;7.55
81905;BME280;71370;-33.792;151.032;2023-10-31T03:16:41;100490.52;;;31.42;7.29
81905;BME280;71370;-33.792;151.032;2023-10-31T03:17:47;100495.59;;;31.37;7.58
81905;BME280;71370;-33.792;151.032;2023-10-31T03:18:54;100509.23;;;31.32;7.49
81905;BME280;71370;-33.792;151.032;2023-10-31T03:20:01;100505.22;;;31.25;7.37
81905;BME280;71370;-33.792;151.032;2023-10-31T03:21:08;100505.71;;;31.16;7.57
81905;BME280;71370;-33.792;151.032;2023-10-31T03:22:15;100510.64;;;31.09;7.97
81905;BME280;71370;-33.792;151.032;2023-10-31T03:23:22;100523.95;;;31.02;8.01
81905;BME280;71370;-33.792;151.032;2023-10-31T03:24:29;100515.70;;;30.94;7.45
81905;BME280;71370;-33.792;151.032;2023-10-31T03:25:36;100515.79;;;30.86;7.50
81905;BME280;71370;-33.792;151.032;2023-10-31T03:26:43;100517.89;;;30.81;7.97
81905;BME280;71370;-33.792;151.032;2023-10-31T03:27:50;100523.98;;;30.77;7.67
81905;BME280;71370;-33.792;151.032;2023-10-31T03:28:57;100521.38;;;30.70;7.59
81905;BME280;71370;-33.792;151.032;2023-10-31T03:30:04;100523.35;;;30.67;7.66
81905;BME280;71370;-33.792;151.032;2023-10-31T03:31:12;100529.06;;;30.64;7.58
81905;BME280;71370;-33.792;151.032;2023-10-31T03:32:19;100536.84;;;30.61;7.04
81905;BME280;71370;-33.792;151.032;2023-10-31T03:33:26;100535.74;;;30.57;7.12
81905;BME280;71370;-33.792;151.032;2023-10-31T03:34:33;100539.20;;;30.55;7.47
81905;BME280;71370;-33.792;151.032;2023-10-31T03:35:40;100538.88;;;30.53;7.65
81905;BME280;71370;-33.792;151.032;2023-10-31T03:36:47;100530.98;;;30.49;7.66
81905;BME280;71370;-33.792;151.032;2023-10-31T03:37:53;100534.95;;;30.43;7.47
81905;BME280;71370;-33.792;151.032;2023-10-31T03:39:00;100533.20;;;30.39;7.37
81905;BME280;71370;-33.792;151.032;2023-10-31T03:40:09;100523.67;;;30.37;7.60
81905;BME280;71370;-33.792;151.032;2023-10-31T03:41:16;100531.74;;;30.37;7.58
81905;BME280;71370;-33.792;151.032;2023-10-31T03:42:23;100548.34;;;30.38;7.68
81905;BME280;71370;-33.792;151.032;2023-10-31T03:43:30;100543.97;;;30.39;7.40
81905;BME280;71370;-33.792;151.032;2023-10-31T03:44:36;100539.03;;;30.39;7.68
81905;BME280;71370;-33.792;151.032;2023-10-31T03:45:43;100535.42;;;30.40;7.49
81905;BME280;71370;-33.792;151.032;2023-10-31T03:46:50;100537.76;;;30.43;7.64
81905;BME280;71370;-33.792;151.032;2023-10-31T03:47:57;100546.08;;;30.45;7.43
81905;BME280;71370;-33.792;151.032;2023-10-31T03:49:04;100541.52;;;30.45;7.33
81905;BME280;71370;-33.792;151.032;2023-10-31T03:50:13;100544.86;;;30.42;7.60
81905;BME280;71370;-33.792;151.032;2023-10-31T03:51:20;100547.95;;;30.42;7.79
81905;BME280;71370;-33.792;151.032;2023-10-31T03:52:27;100549.12;;;30.45;7.95
81905;BME280;71370;-33.792;151.032;2023-10-31T03:53:34;100556.10;;;30.50;7.86
81905;BME280;71370;-33.792;151.032;2023-10-31T03:54:41;100558.92;;;30.56;7.86
81905;BME280;71370;-33.792;151.032;2023-10-31T03:55:48;100554.63;;;30.59;7.78
81905;BME280;71370;-33.792;151.032;2023-10-31T03:56:55;100567.02;;;30.58;7.64
81905;BME280;71370;-33.792;151.032;2023-10-31T03:58:02;100564.54;;;30.54;7.76
81905;BME280;71370;-33.792;151.032;2023-10-31T03:59:09;100568.64;;;30.53;8.06
81905;BME280;71370;-33.792;151.032;2023-10-31T04:00:16;100578.89;;;30.54;15.69
81905;BME280;71370;-33.792;151.032;2023-10-31T04:01:23;100592.45;;;30.51;20.95
81905;BME280;71370;-33.792;151.032;2023-10-31T04:02:30;100596.27;;;30.44;22.56
81905;BME280;71370;-33.792;151.032;2023-10-31T04:03:37;100596.52;;;30.32;24.58
81905;BME280;71370;-33.792;151.032;2023-10-31T04:04:44;100589.85;;;30.20;25.53
81905;BME280;71370;-33.792;151.032;2023-10-31T04:05:51;100582.66;;;30.10;26.20
81905;BME280;71370;-33.792;151.032;2023-10-31T04:06:58;100587.01;;;29.99;26.76
81905;BME280;71370;-33.792;151.032;2023-10-31T04:08:05;100586.98;;;29.89;27.60
81905;BME280;71370;-33.792;151.032;2023-10-31T04:09:12;100586.08;;;29.75;28.12
81905;BME280;71370;-33.792;151.032;2023-10-31T04:10:20;100584.48;;;29.63;28.06
81905;BME280;71370;-33.792;151.032;2023-10-31T04:11:26;100589.98;;;29.51;28.16
81905;BME280;71370;-33.792;151.032;2023-10-31T04:12:34;100592.01;;;29.42;27.64
81905;BME280;71370;-33.792;151.032;2023-10-31T04:13:41;100590.36;;;29.36;27.58
81905;BME280;71370;-33.792;151.032;2023-10-31T04:14:48;100587.07;;;29.34;27.89
81905;BME280;71370;-33.792;151.032;2023-10-31T04:15:55;100587.36;;;29.33;27.43
81905;BME280;71370;-33.792;151.032;2023-10-31T04:17:02;100587.98;;;29.36;27.76
81905;BME280;71370;-33.792;151.032;2023-10-31T04:18:10;100594.70;;;29.40;28.31
81905;BME280;71370;-33.792;151.032;2023-10-31T04:19:16;100598.08;;;29.39;28.50
81905;BME280;71370;-33.792;151.032;2023-10-31T04:20:23;100598.28;;;29.35;28.40
81905;BME280;71370;-33.792;151.032;2023-10-31T04:21:30;100596.89;;;29.28;28.76
81905;BME280;71370;-33.792;151.032;2023-10-31T04:22:37;100595.21;;;29.23;28.63
81905;BME280;71370;-33.792;151.032;2023-10-31T04:23:44;100596.86;;;29.21;28.82
81905;BME280;71370;-33.792;151.032;2023-10-31T04:24:51;100596.62;;;29.18;28.98
81905;BME280;71370;-33.792;151.032;2023-10-31T04:25:58;100599.40;;;29.11;29.10
81905;BME280;71370;-33.792;151.032;2023-10-31T04:27:05;100601.13;;;29.04;29.12
81905;BME280;71370;-33.792;151.032;2023-10-31T04:28:13;100597.45;;;28.99;29.41
81905;BME280;71370;-33.792;151.032;2023-10-31T04:29:21;100593.64;;;28.93;29.43
81905;BME280;71370;-33.792;151.032;2023-10-31T04:30:28;100598.52;;;28.91;29.87
81905;BME280;71370;-33.792;151.032;2023-10-31T04:31:35;100600.98;;;28.90;29.97
81905;BME280;71370;-33.792;151.032;2023-10-31T04:32:41;100601.20;;;28.88;30.12
81905;BME280;71370;-33.792;151.032;2023-10-31T04:33:48;100605.98;;;28.89;30.18
81905;BME280;71370;-33.792;151.032;2023-10-31T04:34:56;100609.23;;;28.91;30.21
81905;BME280;71370;-33.792;151.032;2023-10-31T04:36:03;100616.50;;;28.90;30.06
81905;BME280;71370;-33.792;151.032;2023-10-31T04:37:10;100619.21;;;28.89;30.36
81905;BME280;71370;-33.792;151.032;2023-10-31T04:38:17;100620.05;;;28.84;30.52
81905;BME280;71370;-33.792;151.032;2023-10-31T04:39:24;100621.91;;;28.75;30.68
81905;BME280;71370;-33.792;151.032;2023-10-31T04:40:31;100617.80;;;28.65;30.89
81905;BME280;71370;-33.792;151.032;2023-10-31T04:41:37;100618.76;;;28.52;31.17
81905;BME280;71370;-33.792;151.032;2023-10-31T04:42:46;100621.38;;;28.45;31.23
81905;BME280;71370;-33.792;151.032;2023-10-31T04:43:53;100626.52;;;28.38;31.11
81905;BME280;71370;-33.792;151.032;2023-10-31T04:45:01;100628.16;;;28.32;31.52
81905;BME280;71370;-33.792;151.032;2023-10-31T04:46:08;100622.27;;;28.23;31.50
81905;BME280;71370;-33.792;151.032;2023-10-31T04:47:15;100628.06;;;28.13;31.43
81905;BME280;71370;-33.792;151.032;2023-10-31T04:48:22;100627.64;;;28.05;31.70
81905;BME280;71370;-33.792;151.032;2023-10-31T04:49:29;100641.48;;;28.02;31.97
81905;BME280;71370;-33.792;151.032;2023-10-31T04:50:36;100641.44;;;27.96;31.75
81905;BME280;71370;-33.792;151.032;2023-10-31T04:51:43;100635.08;;;27.86;31.80
81905;BME280;71370;-33.792;151.032;2023-10-31T04:52:50;100637.56;;;27.78;31.79
81905;BME280;71370;-33.792;151.032;2023-10-31T04:53:56;100645.81;;;27.75;32.03
81905;BME280;71370;-33.792;151.032;2023-10-31T04:55:03;100653.34;;;27.71;31.99
81905;BME280;71370;-33.792;151.032;2023-10-31T04:56:14;100650.88;;;27.65;31.90
81905;BME280;71370;-33.792;151.032;2023-10-31T04:57:21;100650.88;;;27.58;32.13
81905;BME280;71370;-33.792;151.032;2023-10-31T04:58:28;100650.88;;;27.54;32.46
81905;BME280;71370;-33.792;151.032;2023-10-31T04:59:35;100650.28;;;27.50;32.37
81905;BME280;71370;-33.792;151.032;2023-10-31T05:00:42;100649.00;;;27.46;32.31
81905;BME280;71370;-33.792;151.032;2023-10-31T05:01:50;100648.16;;;27.44;32.45
81905;BME280;71370;-33.792;151.032;2023-10-31T05:02:58;100655.64;;;27.41;32.50
81905;BME280;71370;-33.792;151.032;2023-10-31T05:04:07;100652.56;;;27.36;32.31
81905;BME280;71370;-33.792;151.032;2023-10-31T05:05:15;100655.98;;;27.30;32.12
81905;BME280;71370;-33.792;151.032;2023-10-31T05:06:22;100654.85;;;27.20;32.26
81905;BME280;71370;-33.792;151.032;2023-10-31T05:07:29;100657.27;;;27.10;32.37
81905;BME280;71370;-33.792;151.032;2023-10-31T05:08:38;100655.62;;;27.04;32.42
81905;BME280;71370;-33.792;151.032;2023-10-31T05:09:45;100652.73;;;27.02;32.51
81905;BME280;71370;-33.792;151.032;2023-10-31T05:10:52;100653.27;;;27.00;32.80
81905;BME280;71370;-33.792;151.032;2023-10-31T05:11:59;100648.93;;;26.98;32.93
81905;BME280;71370;-33.792;151.032;2023-10-31T05:13:06;100652.29;;;26.93;33.08
81905;BME280;71370;-33.792;151.032;2023-10-31T05:14:13;100656.53;;;26.85;33.05
81905;BME280;71370;-33.792;151.032;2023-10-31T05:15:20;100654.84;;;26.75;33.15
81905;BME280;71370;-33.792;151.032;2023-10-31T05:16:27;100657.92;;;26.64;33.39
81905;BME280;71370;-33.792;151.032;2023-10-31T05:17:34;100653.04;;;26.55;33.18
81905;BME280;71370;-33.792;151.032;2023-10-31T05:18:40;100656.33;;;26.50;33.28
81905;BME280;71370;-33.792;151.032;2023-10-31T05:19:47;100653.42;;;26.48;33.44
81905;BME280;71370;-33.792;151.032;2023-10-31T05:20:55;100661.64;;;26.47;33.19
81905;BME280;71370;-33.792;151.032;2023-10-31T05:22:02;100664.66;;;26.45;33.08
81905;BME280;71370;-33.792;151.032;2023-10-31T05:23:09;100667.62;;;26.46;33.16
81905;BME280;71370;-33.792;151.032;2023-10-31T05:24:16;100666.81;;;26.50;33.10
81905;BME280;71370;-33.792;151.032;2023-10-31T05:25:22;100675.01;;;26.53;32.97
81905;BME280;71370;-33.792;151.032;2023-10-31T05:26:29;100678.32;;;26.54;32.77
81905;BME280;71370;-33.792;151.032;2023-10-31T05:27:36;100681.30;;;26.53;32.95
81905;BME280;71370;-33.792;151.032;2023-10-31T05:28:43;100689.10;;;26.48;33.00
81905;BME280;71370;-33.792;151.032;2023-10-31T05:29:50;100685.38;;;26.40;33.06
81905;BME280;71370;-33.792;151.032;2023-10-31T05:30:57;100689.36;;;26.33;33.18
81905;BME280;71370;-33.792;151.032;2023-10-31T05:32:04;100686.24;;;26.30;33.30
81905;BME280;71370;-33.792;151.032;2023-10-31T05:33:11;100688.55;;;26.26;33.41
81905;BME280;71370;-33.792;151.032;2023-10-31T05:34:17;100693.91;;;26.24;33.40
81905;BME280;71370;-33.792;151.032;2023-10-31T05:35:24;100694.30;;;26.26;33.26
81905;BME280;71370;-33.792;151.032;2023-10-31T05:36:31;100699.34;;;26.28;33.39
81905;BME280;71370;-33.792;151.032;2023-10-31T05:37:38;100701.02;;;26.30;33.65
81905;BME280;71370;-33.792;151.032;2023-10-31T05:38:45;100701.30;;;26.29;33.70
81905;BME280;71370;-33.792;151.032;2023-10-31T05:39:53;100709.55;;;26.27;33.81